createdAt,value
2018-03-16T00:01:35.774Z,3.03
2018-03-16T00:04:02.139Z,3.20
2018-03-16T00:06:28.513Z,1.87
2018-03-16T00:08:54.951Z,1.60
2018-03-16T00:11:21.393Z,1.87
2018-03-16T00:13:47.808Z,1.47
2018-03-16T00:16:14.314Z,1.80
2018-03-16T00:18:40.617Z,1.40
2018-03-16T00:21:06.976Z,1.40
2018-03-16T00:23:33.307Z,2.90
2018-03-16T00:25:59.625Z,4.57
2018-03-16T00:28:25.933Z,4.37
2018-03-16T00:30:52.297Z,5.13
2018-03-16T00:33:18.656Z,4.10
2018-03-16T00:35:45.063Z,3.70
2018-03-16T00:38:11.463Z,2.60
2018-03-16T00:40:37.749Z,1.90
2018-03-16T00:43:04.111Z,1.33
2018-03-16T00:45:31.677Z,1.90
2018-03-16T00:47:57.998Z,1.33
2018-03-16T00:50:24.320Z,1.40
2018-03-16T00:52:50.654Z,1.90
2018-03-16T00:55:17.053Z,2.00
2018-03-16T00:57:43.448Z,1.60
2018-03-16T01:00:09.859Z,1.53
2018-03-16T01:02:36.348Z,1.53
2018-03-16T01:05:02.726Z,1.60
2018-03-16T01:07:29.346Z,1.67
2018-03-16T01:09:55.759Z,1.83
2018-03-16T01:12:22.084Z,1.30
2018-03-16T01:14:48.537Z,1.43
2018-03-16T01:17:14.877Z,1.57
2018-03-16T01:19:41.275Z,1.93
2018-03-16T01:22:07.763Z,1.23
2018-03-16T01:24:34.729Z,2.13
2018-03-16T01:27:01.249Z,6.17
2018-03-16T01:29:27.690Z,5.30
2018-03-16T01:31:54.020Z,5.17
2018-03-16T01:34:20.379Z,4.67
2018-03-16T01:36:46.769Z,5.07
2018-03-16T01:39:13.149Z,4.57
2018-03-16T01:41:39.505Z,5.00
2018-03-16T01:44:05.954Z,4.20
2018-03-16T01:46:32.441Z,3.97
2018-03-16T01:48:58.880Z,2.90
2018-03-16T01:51:25.293Z,2.73
2018-03-16T01:53:51.633Z,2.83
2018-03-16T01:56:18.022Z,2.27
2018-03-16T01:58:44.377Z,1.83
2018-03-16T02:01:10.712Z,1.77
2018-03-16T02:03:37.043Z,1.50
2018-03-16T02:06:03.461Z,1.50
2018-03-16T02:08:29.776Z,1.50
2018-03-16T02:10:56.641Z,1.40
2018-03-16T02:13:23.123Z,1.30
2018-03-16T02:15:49.451Z,1.40
2018-03-16T02:18:15.760Z,1.30
2018-03-16T02:20:42.132Z,1.47
2018-03-16T02:23:08.483Z,3.83
2018-03-16T02:25:34.951Z,3.83
2018-03-16T02:28:01.334Z,4.03
2018-03-16T02:30:27.642Z,3.97
2018-03-16T02:32:53.971Z,3.60
2018-03-16T02:35:20.380Z,3.60
2018-03-16T02:37:46.711Z,3.40
2018-03-16T02:40:13.038Z,3.83
2018-03-16T02:42:39.392Z,3.80
2018-03-16T02:45:05.810Z,3.33
2018-03-16T02:47:32.138Z,3.43
2018-03-16T02:49:58.521Z,3.93
2018-03-16T02:52:24.884Z,2.90
2018-03-16T02:54:51.292Z,1.73
2018-03-16T02:57:17.647Z,1.50
2018-03-16T02:59:43.937Z,1.77
2018-03-16T03:02:10.333Z,1.30
2018-03-16T03:04:36.701Z,1.47
2018-03-16T03:07:03.064Z,1.40
2018-03-16T03:09:29.385Z,1.03
2018-03-16T03:11:55.832Z,1.23
2018-03-16T03:14:22.148Z,1.40
2018-03-16T03:16:48.573Z,1.40
2018-03-16T03:19:14.951Z,2.17
2018-03-16T03:21:41.256Z,2.97
2018-03-16T03:24:07.644Z,3.00
2018-03-16T03:26:34.008Z,3.07
2018-03-16T03:29:00.353Z,3.23
2018-03-16T03:31:26.687Z,3.03
2018-03-16T03:33:53.067Z,3.20
2018-03-16T03:36:19.429Z,2.43
2018-03-16T03:38:45.801Z,4.43
2018-03-16T03:41:13.141Z,3.43
2018-03-16T03:43:39.467Z,2.80
2018-03-16T03:46:05.928Z,3.17
2018-03-16T03:48:32.385Z,3.17
2018-03-16T03:50:58.708Z,2.77
2018-03-16T03:53:25.091Z,3.07
2018-03-16T03:55:51.567Z,3.00
2018-03-16T03:58:17.925Z,3.47
2018-03-16T04:00:44.251Z,2.77
2018-03-16T04:03:10.647Z,2.10
2018-03-16T04:05:37.023Z,2.33
2018-03-16T04:08:03.437Z,2.13
2018-03-16T04:10:29.894Z,2.13
2018-03-16T04:12:56.278Z,1.93
2018-03-16T04:15:22.659Z,2.10
2018-03-16T04:17:49.025Z,2.37
2018-03-16T04:20:15.342Z,2.20
2018-03-16T04:22:41.651Z,1.70
2018-03-16T04:25:08.129Z,1.83
2018-03-16T04:27:34.443Z,1.97
2018-03-16T04:30:00.849Z,2.10
2018-03-16T04:32:27.252Z,1.60
2018-03-16T04:34:53.633Z,2.07
2018-03-16T04:37:20.032Z,2.47
2018-03-16T04:39:46.416Z,2.10
2018-03-16T04:42:12.716Z,2.00
2018-03-16T04:44:39.147Z,1.70
2018-03-16T04:47:05.519Z,1.70
2018-03-16T04:49:31.842Z,1.90
2018-03-16T04:51:58.176Z,1.50
2018-03-16T04:54:24.642Z,1.30
2018-03-16T04:56:51.042Z,1.20
2018-03-16T04:59:17.346Z,1.87
2018-03-16T05:01:43.742Z,1.70
2018-03-16T05:04:10.072Z,1.40
2018-03-16T05:06:36.461Z,1.80
2018-03-16T05:09:02.929Z,1.50
2018-03-16T05:11:29.237Z,1.60
2018-03-16T05:13:55.697Z,1.60
2018-03-16T05:16:22.110Z,1.40
2018-03-16T05:18:48.543Z,2.67
2018-03-16T05:21:14.888Z,2.37
2018-03-16T05:23:41.267Z,1.27
2018-03-16T05:26:07.753Z,1.63
2018-03-16T05:28:34.143Z,1.70
2018-03-16T05:31:00.566Z,1.50
2018-03-16T05:33:26.960Z,1.83
2018-03-16T05:35:53.407Z,1.80
2018-03-16T05:38:19.933Z,1.50
2018-03-16T05:40:46.325Z,1.30
2018-03-16T05:43:12.757Z,1.43
2018-03-16T05:45:39.181Z,1.80
2018-03-16T05:48:05.633Z,1.50
2018-03-16T05:50:31.989Z,1.60
2018-03-16T05:52:58.422Z,1.60
2018-03-16T05:55:24.867Z,1.27
2018-03-16T05:57:51.214Z,1.40
2018-03-16T06:00:18.557Z,1.40
2018-03-16T06:02:44.942Z,1.57
2018-03-16T06:05:11.360Z,1.23
2018-03-16T06:07:37.772Z,1.20
2018-03-16T06:10:04.106Z,1.60
2018-03-16T06:12:30.450Z,1.70
2018-03-16T06:14:56.929Z,1.90
2018-03-16T06:17:23.414Z,3.60
2018-03-16T06:19:49.821Z,1.80
2018-03-16T06:22:16.222Z,1.73
2018-03-16T06:24:42.703Z,1.67
2018-03-16T06:27:09.136Z,1.87
2018-03-16T06:29:35.602Z,1.77
2018-03-16T06:32:02.107Z,1.70
2018-03-16T06:34:28.500Z,1.80
2018-03-16T06:36:54.925Z,1.73
2018-03-16T06:39:21.291Z,1.93
2018-03-16T06:41:47.628Z,1.70
2018-03-16T06:44:14.082Z,1.67
2018-03-16T06:46:40.405Z,1.43
2018-03-16T06:49:07.303Z,1.83
2018-03-16T06:51:33.703Z,1.90
2018-03-16T06:54:00.047Z,1.67
2018-03-16T06:56:26.497Z,1.70
2018-03-16T06:58:52.872Z,1.90
2018-03-16T07:01:19.245Z,2.20
2018-03-16T07:03:45.634Z,1.83
2018-03-16T07:06:12.150Z,1.90
2018-03-16T07:08:39.191Z,1.90
2018-03-16T07:11:05.587Z,2.40
2018-03-16T07:13:31.964Z,1.97
2018-03-16T07:15:58.406Z,1.70
2018-03-16T07:18:24.842Z,2.07
2018-03-16T07:20:51.254Z,2.00
2018-03-16T07:23:17.686Z,2.00
2018-03-16T07:25:44.827Z,2.10
2018-03-16T07:28:11.292Z,1.80
2018-03-16T07:30:37.636Z,2.10
2018-03-16T07:33:04.075Z,2.10
2018-03-16T07:35:30.582Z,2.10
2018-03-16T07:37:57.245Z,1.70
2018-03-16T07:40:23.612Z,1.97
2018-03-16T07:42:50.097Z,1.70
2018-03-16T07:45:16.726Z,1.80
2018-03-16T07:47:43.204Z,1.70
2018-03-16T07:50:09.677Z,1.83
2018-03-16T07:52:36.037Z,1.47
2018-03-16T07:55:02.495Z,2.17
2018-03-16T07:57:29.006Z,2.10
2018-03-16T07:59:55.525Z,1.97
2018-03-16T08:02:22.020Z,1.50
2018-03-16T08:04:48.413Z,1.90
2018-03-16T08:07:14.949Z,1.40
2018-03-16T08:09:41.422Z,1.70
2018-03-16T08:12:08.091Z,1.73
2018-03-16T08:14:34.751Z,1.60
2018-03-16T08:17:01.470Z,1.47
2018-03-16T08:19:27.995Z,1.57
2018-03-16T08:21:54.869Z,1.30
2018-03-16T08:24:21.414Z,1.30
2018-03-16T08:26:48.021Z,1.40
2018-03-16T08:29:14.460Z,1.30
2018-03-16T08:31:40.923Z,1.40
2018-03-16T08:34:07.431Z,1.10
2018-03-16T08:36:33.857Z,1.27
2018-03-16T08:39:00.316Z,1.20
2018-03-16T08:41:26.768Z,1.53
2018-03-16T08:43:53.178Z,1.67
2018-03-16T08:46:19.568Z,1.30
2018-03-16T08:48:45.942Z,1.50
2018-03-16T08:51:12.369Z,1.50
2018-03-16T08:53:38.778Z,1.30
2018-03-16T08:56:05.269Z,1.27
2018-03-16T08:58:32.670Z,1.33
2018-03-16T09:00:59.108Z,1.17
2018-03-16T09:03:25.554Z,1.47
2018-03-16T09:05:51.993Z,1.67
2018-03-16T09:08:18.400Z,1.37
2018-03-16T09:10:44.805Z,1.80
2018-03-16T09:13:11.194Z,1.47
2018-03-16T09:15:37.592Z,1.43
2018-03-16T09:18:03.983Z,1.70
2018-03-16T09:20:30.615Z,1.30
2018-03-16T09:22:57.059Z,1.20
2018-03-16T09:25:23.644Z,1.40
2018-03-16T09:27:50.065Z,1.60
2018-03-16T09:30:16.421Z,1.43
2018-03-16T09:32:42.845Z,1.47
2018-03-16T09:35:09.231Z,2.03
2018-03-16T09:37:35.962Z,1.40
2018-03-16T09:40:02.564Z,1.80
2018-03-16T09:42:28.930Z,1.27
2018-03-16T09:44:55.293Z,1.37
2018-03-16T09:47:21.785Z,1.20
2018-03-16T09:49:48.176Z,1.70
2018-03-16T09:52:14.610Z,1.37
2018-03-16T09:54:53.532Z,1.30
2018-03-16T09:57:19.994Z,1.40
2018-03-16T09:59:46.417Z,1.33
2018-03-16T10:02:12.901Z,1.30
2018-03-16T10:04:39.457Z,1.30
2018-03-16T10:07:06.003Z,1.50
2018-03-16T10:09:32.460Z,1.00
2018-03-16T10:11:58.837Z,1.33
2018-03-16T10:14:25.261Z,1.00
2018-03-16T10:16:51.693Z,1.40
2018-03-16T10:19:18.065Z,1.30
2018-03-16T10:21:44.530Z,0.90
2018-03-16T10:24:10.918Z,1.37
2018-03-16T10:26:37.474Z,1.20
2018-03-16T10:29:04.018Z,0.87
2018-03-16T10:31:30.795Z,1.03
2018-03-16T10:33:57.160Z,0.83
2018-03-16T10:36:23.692Z,0.97
2018-03-16T10:38:50.209Z,1.00
2018-03-16T10:41:16.746Z,1.00
2018-03-16T10:43:43.241Z,1.00
2018-03-16T10:46:10.798Z,1.20
2018-03-16T10:48:37.183Z,1.40
2018-03-16T10:51:03.550Z,1.10
2018-03-16T10:53:30.071Z,1.20
2018-03-16T10:55:56.578Z,1.10
2018-03-16T10:58:23.026Z,1.00
2018-03-16T11:00:55.514Z,1.27
2018-03-16T11:03:21.915Z,1.00
2018-03-16T11:05:54.373Z,1.27
2018-03-16T11:08:26.971Z,0.93
2018-03-16T11:10:53.378Z,1.40
2018-03-16T11:13:19.892Z,1.30
2018-03-16T11:15:46.658Z,1.33
2018-03-16T11:18:13.346Z,1.40
2018-03-16T11:20:39.768Z,1.30
2018-03-16T11:23:06.288Z,1.60
2018-03-16T11:25:32.797Z,1.20
2018-03-16T11:27:59.203Z,2.10
2018-03-16T11:30:25.803Z,1.37
2018-03-16T11:32:52.394Z,1.43
2018-03-16T11:35:18.794Z,1.50
2018-03-16T11:37:45.199Z,1.10
2018-03-16T11:40:11.645Z,1.60
2018-03-16T11:42:38.325Z,1.67
2018-03-16T11:45:04.787Z,1.20
2018-03-16T11:47:31.289Z,1.60
2018-03-16T11:49:57.699Z,1.40
2018-03-16T11:52:24.126Z,1.30
2018-03-16T11:54:50.565Z,1.20
2018-03-16T11:57:16.976Z,1.20
2018-03-16T11:59:43.449Z,1.30
2018-03-16T12:02:09.961Z,1.33
2018-03-16T12:04:36.786Z,1.53
2018-03-16T12:07:03.334Z,1.40
2018-03-16T12:09:29.745Z,1.37
2018-03-16T12:11:56.248Z,1.50
2018-03-16T12:14:22.820Z,1.43
2018-03-16T12:16:49.308Z,1.43
2018-03-16T12:19:15.868Z,1.40
2018-03-16T12:21:42.414Z,1.20
2018-03-16T12:24:09.051Z,1.70
2018-03-16T12:26:36.571Z,1.50
2018-03-16T12:29:03.148Z,1.40
2018-03-16T12:31:29.649Z,1.40
2018-03-16T12:33:56.010Z,1.67
2018-03-16T12:36:23.656Z,1.30
2018-03-16T12:38:50.123Z,1.67
2018-03-16T12:41:16.503Z,1.37
2018-03-16T12:43:42.992Z,1.57
2018-03-16T12:46:09.454Z,1.50
2018-03-16T12:48:35.896Z,1.23
2018-03-16T12:51:02.367Z,1.43
2018-03-16T12:53:28.927Z,1.40
2018-03-16T12:55:56.290Z,1.50
2018-03-16T12:58:22.687Z,1.90
2018-03-16T13:00:49.131Z,1.33
2018-03-16T13:03:15.523Z,1.17
2018-03-16T13:05:41.998Z,1.33
2018-03-16T13:08:08.480Z,1.57
2018-03-16T13:10:34.939Z,1.20
2018-03-16T13:13:01.316Z,1.40
2018-03-16T13:15:27.748Z,1.80
2018-03-16T13:17:54.126Z,1.50
2018-03-16T13:20:20.576Z,1.30
2018-03-16T13:22:47.094Z,1.00
2018-03-16T13:25:13.516Z,1.80
2018-03-16T13:27:40.016Z,1.53
2018-03-16T13:30:06.530Z,1.50
2018-03-16T13:32:32.938Z,1.27
2018-03-16T13:34:59.359Z,1.40
2018-03-16T13:37:25.835Z,1.50
2018-03-16T13:39:52.244Z,1.60
2018-03-16T13:42:18.991Z,1.37
2018-03-16T13:44:45.446Z,1.50
2018-03-16T13:47:12.279Z,1.53
2018-03-16T13:49:38.727Z,1.60
2018-03-16T13:52:05.286Z,1.77
2018-03-16T13:54:31.999Z,1.40
2018-03-16T13:56:58.464Z,1.13
2018-03-16T13:59:25.084Z,1.50
2018-03-16T14:01:51.587Z,1.50
2018-03-16T14:04:18.007Z,1.30
2018-03-16T14:06:44.534Z,1.30
2018-03-16T14:09:11.874Z,1.47
2018-03-16T14:11:38.383Z,1.10
2018-03-16T14:14:04.968Z,1.57
2018-03-16T14:16:31.441Z,1.53
2018-03-16T14:18:57.881Z,1.50
2018-03-16T14:21:24.328Z,1.70
2018-03-16T14:23:50.751Z,1.57
2018-03-16T14:26:17.146Z,1.90
2018-03-16T14:28:43.818Z,1.90
2018-03-16T14:31:10.216Z,1.53
2018-03-16T14:33:36.989Z,1.70
2018-03-16T14:36:03.918Z,1.47
2018-03-16T14:38:30.415Z,1.77
2018-03-16T14:40:57.270Z,1.90
2018-03-16T14:43:23.957Z,1.67
2018-03-16T14:45:50.470Z,1.60
2018-03-16T14:48:17.132Z,1.97
2018-03-16T14:50:43.632Z,1.87
2018-03-16T14:53:10.646Z,1.90
2018-03-16T14:55:37.193Z,1.60
2018-03-16T14:58:04.143Z,1.50
2018-03-16T15:00:30.804Z,1.93
2018-03-16T15:02:57.279Z,1.77
2018-03-16T15:05:23.902Z,1.77
2018-03-16T15:07:51.544Z,1.70
2018-03-16T15:10:18.125Z,2.13
2018-03-16T15:12:45.043Z,1.97
2018-03-16T15:15:11.469Z,1.80
2018-03-16T15:17:37.905Z,1.70
2018-03-16T15:20:04.471Z,1.67
2018-03-16T15:22:30.968Z,1.93
2018-03-16T15:24:57.674Z,2.00
2018-03-16T15:27:24.730Z,1.40
2018-03-16T15:29:51.284Z,1.93
2018-03-16T15:32:18.297Z,1.93
2018-03-16T15:34:44.780Z,1.57
2018-03-16T15:37:11.244Z,1.90
2018-03-16T15:39:37.726Z,2.17
2018-03-16T15:42:04.939Z,1.90
2018-03-16T15:44:31.868Z,2.20
2018-03-16T15:46:58.418Z,1.40
2018-03-16T15:49:24.921Z,1.63
2018-03-16T15:51:51.691Z,2.27
2018-03-16T15:54:18.454Z,1.80
2018-03-16T15:56:45.141Z,1.70
2018-03-16T15:59:11.717Z,1.70
2018-03-16T16:01:38.199Z,1.60
2018-03-16T16:04:04.777Z,1.67
2018-03-16T16:06:31.717Z,1.90
2018-03-16T16:08:58.347Z,1.60
2018-03-16T16:11:25.884Z,1.63
2018-03-16T16:13:52.556Z,1.90
2018-03-16T16:16:20.132Z,1.97
2018-03-16T16:18:46.973Z,1.50
2018-03-16T16:21:13.801Z,1.40
2018-03-16T16:23:40.579Z,1.60
2018-03-16T16:26:07.298Z,2.10
2018-03-16T16:28:33.871Z,1.90
2018-03-16T16:31:00.404Z,2.90
2018-03-16T16:33:27.150Z,1.60
2018-03-16T16:35:54.642Z,2.17
2018-03-16T16:38:21.782Z,2.00
2018-03-16T16:40:48.611Z,1.90
2018-03-16T16:43:17.225Z,2.50
2018-03-16T16:45:44.410Z,2.20
2018-03-16T16:48:11.036Z,2.03
2018-03-16T16:50:38.179Z,1.90
2018-03-16T16:53:04.935Z,1.70
2018-03-16T16:55:32.315Z,1.50
2018-03-16T16:57:59.149Z,1.83
2018-03-16T17:00:26.969Z,1.70
2018-03-16T17:02:54.186Z,1.63
2018-03-16T17:05:21.458Z,1.60
2018-03-16T17:07:48.128Z,2.10
2018-03-16T17:10:15.169Z,1.73
2018-03-16T17:12:42.343Z,1.70
2018-03-16T17:15:09.240Z,1.70
2018-03-16T17:17:36.171Z,1.60
2018-03-16T17:20:03.276Z,1.83
2018-03-16T17:22:30.342Z,1.60
2018-03-16T17:24:57.057Z,1.50
2018-03-16T17:27:23.820Z,1.73
2018-03-16T17:29:51.226Z,2.00
2018-03-16T17:32:24.242Z,1.83
2018-03-16T17:34:45.247Z,1.47
2018-03-16T17:37:14.397Z,1.70
2018-03-16T17:39:41.642Z,1.43
2018-03-16T17:42:08.437Z,1.60
2018-03-16T17:44:34.999Z,1.70
2018-03-16T17:47:01.726Z,2.33
2018-03-16T17:49:28.824Z,1.77
2018-03-16T17:51:55.689Z,1.93
2018-03-16T17:54:22.488Z,1.47
2018-03-16T17:56:50.110Z,2.27
2018-03-16T17:59:17.686Z,1.67
2018-03-16T18:01:44.583Z,1.77
2018-03-16T18:04:11.415Z,1.70
2018-03-16T18:06:42.999Z,2.20
2018-03-16T18:09:10.452Z,1.63
2018-03-16T18:11:37.787Z,2.00
2018-03-16T18:14:04.886Z,1.90
2018-03-16T18:16:32.123Z,1.77
2018-03-16T18:18:59.597Z,1.77
2018-03-16T18:21:26.743Z,2.10
2018-03-16T18:23:53.669Z,1.83
2018-03-16T18:26:21.681Z,2.07
2018-03-16T18:28:49.203Z,1.63
2018-03-16T18:31:16.774Z,1.87
2018-03-16T18:33:44.030Z,2.00
2018-03-16T18:36:11.127Z,1.93
2018-03-16T18:38:38.155Z,1.57
2018-03-16T18:41:06.301Z,2.73
2018-03-16T18:43:33.747Z,2.10
2018-03-16T18:46:01.636Z,1.90
2018-03-16T18:48:30.099Z,2.30
2018-03-16T18:50:57.782Z,2.87
2018-03-16T18:53:25.484Z,2.00
2018-03-16T18:55:52.844Z,1.80
2018-03-16T18:58:20.745Z,1.93
2018-03-16T19:00:48.026Z,1.97
2018-03-16T19:03:15.926Z,2.30
2018-03-16T19:05:43.780Z,1.73
2018-03-16T19:08:10.647Z,2.17
2018-03-16T19:10:37.548Z,2.13
2018-03-16T19:13:05.140Z,1.87
2018-03-16T19:15:32.083Z,2.23
2018-03-16T19:17:59.162Z,2.03
2018-03-16T19:20:26.501Z,2.27
2018-03-16T19:22:53.340Z,1.57
2018-03-16T19:25:22.593Z,1.93
2018-03-16T19:27:49.687Z,1.80
2018-03-16T19:30:17.813Z,1.77
2018-03-16T19:32:45.003Z,1.70
2018-03-16T19:35:12.444Z,2.33
2018-03-16T19:37:39.383Z,2.60
2018-03-16T19:40:06.350Z,2.00
2018-03-16T19:42:33.145Z,2.23
2018-03-16T19:45:00.048Z,2.03
2018-03-16T19:47:27.440Z,2.17
2018-03-16T19:49:54.874Z,2.17
2018-03-16T19:52:21.863Z,2.20
2018-03-16T19:54:48.778Z,1.93
2018-03-16T19:57:16.261Z,2.20
2018-03-16T19:59:48.522Z,2.50
2018-03-16T20:02:15.497Z,2.23
2018-03-16T20:04:42.668Z,1.80
2018-03-16T20:07:10.755Z,2.20
2018-03-16T20:09:37.805Z,1.97
2018-03-16T20:12:04.691Z,2.10
2018-03-16T20:14:31.524Z,2.00
2018-03-16T20:16:58.824Z,2.60
2018-03-16T20:19:26.270Z,2.20
2018-03-16T20:21:53.089Z,2.20
2018-03-16T20:24:20.058Z,2.33
2018-03-16T20:26:47.238Z,2.23
2018-03-16T20:29:13.991Z,2.33
2018-03-16T20:31:40.751Z,2.50
2018-03-16T20:34:07.430Z,2.27
2018-03-16T20:36:37.535Z,2.17
2018-03-16T20:39:05.529Z,2.00
2018-03-16T20:41:32.540Z,1.70
2018-03-16T20:43:59.116Z,2.83
2018-03-16T20:46:25.910Z,2.37
2018-03-16T20:48:52.539Z,2.30
2018-03-16T20:51:19.439Z,1.80
2018-03-16T20:53:46.160Z,2.03
2018-03-16T20:56:13.039Z,2.23
2018-03-16T20:58:39.524Z,2.17
2018-03-16T21:01:05.972Z,2.20
2018-03-16T21:03:32.410Z,2.30
2018-03-16T21:05:59.214Z,3.23
2018-03-16T21:08:25.857Z,3.30
2018-03-16T21:10:52.541Z,2.30
2018-03-16T21:13:19.056Z,1.87
2018-03-16T21:15:45.537Z,2.33
2018-03-16T21:18:14.060Z,1.90
2018-03-16T21:20:40.571Z,2.30
2018-03-16T21:23:07.052Z,2.33
2018-03-16T21:25:34.811Z,2.43
2018-03-16T21:28:01.367Z,3.27
2018-03-16T21:30:28.069Z,2.93
2018-03-16T21:32:54.537Z,2.70
2018-03-16T21:35:21.451Z,3.57
2018-03-16T21:37:48.068Z,2.87
2018-03-16T21:40:14.597Z,2.43
2018-03-16T21:42:41.193Z,3.03
2018-03-16T21:45:07.602Z,2.43
2018-03-16T21:47:34.075Z,2.73
2018-03-16T21:50:00.677Z,2.77
2018-03-16T21:52:27.841Z,2.63
2018-03-16T21:54:54.251Z,2.47
2018-03-16T21:57:20.781Z,3.00
2018-03-16T21:59:47.252Z,2.60
2018-03-16T22:02:13.720Z,3.43
2018-03-16T22:04:40.098Z,2.80
2018-03-16T22:07:06.588Z,2.13
2018-03-16T22:09:33.114Z,3.03
2018-03-16T22:11:59.547Z,2.57
2018-03-16T22:14:26.033Z,2.53
2018-03-16T22:16:52.619Z,3.10
2018-03-16T22:19:19.095Z,2.43
2018-03-16T22:21:45.530Z,3.30
2018-03-16T22:24:11.967Z,3.83
2018-03-16T22:26:38.437Z,2.70
2018-03-16T22:29:04.824Z,4.07
2018-03-16T22:31:31.180Z,3.37
2018-03-16T22:33:57.524Z,2.40
2018-03-16T22:36:23.952Z,2.83
2018-03-16T22:38:50.411Z,3.13
2018-03-16T22:41:16.855Z,4.03
2018-03-16T22:43:43.358Z,2.97
2018-03-16T22:46:17.831Z,2.80
2018-03-16T22:48:44.251Z,3.87
2018-03-16T22:51:10.665Z,3.13
2018-03-16T22:53:37.091Z,3.13
2018-03-16T22:56:14.896Z,2.77
2018-03-16T22:58:41.295Z,3.97
2018-03-16T23:01:09.053Z,2.80
2018-03-16T23:03:36.428Z,2.97
2018-03-16T23:06:03.044Z,3.47
2018-03-16T23:08:29.895Z,4.47
2018-03-16T23:10:56.701Z,2.57
2018-03-16T23:13:23.129Z,3.13
2018-03-16T23:15:49.572Z,3.10
2018-03-16T23:18:16.124Z,4.07
2018-03-16T23:20:42.610Z,3.47
2018-03-16T23:23:09.021Z,2.80
2018-03-16T23:25:35.512Z,3.03
2018-03-16T23:28:03.497Z,2.87
2018-03-16T23:30:29.972Z,3.83
2018-03-16T23:32:56.386Z,4.10
2018-03-16T23:35:22.809Z,3.03
2018-03-16T23:37:49.701Z,2.97
2018-03-16T23:40:16.130Z,2.83
2018-03-16T23:42:42.550Z,2.83
2018-03-16T23:45:08.927Z,2.70
2018-03-16T23:47:35.410Z,3.17
2018-03-16T23:50:01.756Z,4.57
2018-03-16T23:52:28.237Z,2.90
2018-03-16T23:54:54.632Z,2.90
2018-03-16T23:57:21.173Z,3.50
2018-03-16T23:59:47.565Z,3.20
